• Join FlightAware (Why Join?)
  • Login
  • US Flag 
07:14AM EST


 

Airport Tracker/Info


-or-


 

Live Flight TrackerFlight Track Log ✈ SWA864 ✈ 23-Mar-2014 ✈ KONT - KSMF

Flight Track Log - Related Links

Times and Time Zones

All times are in EDT time to prevent confusion due to time zone crossing. See the SWA864 flight status page for this flight to view local times or setup timezone preferences in your user account.

Time Position Orientation Groundspeed Altitude Reporting Facility
EDT Latitude Longitude Course Direction KTS MPH feet Rate Location/Type
01:46PM 34.1161 -117.7681 301° West 233 268 7,100  Level Los Angeles Center
01:47PM 34.1664 -117.8658 302° West 275 316 10,700 3,000 Climbing Los Angeles Center
01:48PM 34.2150 -117.9597 302° West 317 365 13,300 3,000 Climbing Los Angeles Center
01:49PM 34.2725 -118.0619 304° West 360 414 16,900 3,240 Climbing Los Angeles Center
01:50PM 34.3339 -118.1619 307° West 370 426 20,100 2,940 Climbing Los Angeles Center
01:51PM 34.4031 -118.2639 309° West 394 453 23,100 3,000 Climbing Los Angeles Center
01:52PM 34.4894 -118.3811 312° West 393 452 26,400 2,460 Climbing Los Angeles Center
01:53PM 34.5933 -118.4447 333° Northwest 418 481 28,300 1,740 Climbing Los Angeles Center
01:54PM 34.7036 -118.5078 335° Northwest 437 503 30,100 1,980 Climbing Los Angeles Center
01:55PM 34.8158 -118.5736 334° Northwest 444 511 32,400 2,100 Climbing Los Angeles Center
01:56PM 34.9303 -118.6417 334° Northwest 439 505 34,500 1,740 Climbing Los Angeles Center
01:57PM 35.0406 -118.7058 335° Northwest 438 504 36,000 720 Climbing Los Angeles Center
01:58PM 35.1383 -118.7886 325° Northwest 431 496 36,000 660 Level Los Angeles Center
01:59PM 35.2567 -118.8875 326° Northwest 431 496 37,400 960 Climbing Los Angeles Center
02:00PM 35.3647 -118.9478 336° Northwest 428 493 38,000 240 Climbing Los Angeles Center
02:01PM 35.4753 -119.0089 336° Northwest 432 497 38,000  Level Los Angeles Center
02:03PM 35.5833 -119.0711 335° Northwest 432 497 38,000  Level Los Angeles Center
02:04PM 35.6933 -119.1333 335° Northwest 432 497 38,000  Level Los Angeles Center
02:05PM 35.8231 -119.2081 335° Northwest 432 497 38,000  Level Los Angeles Center
02:06PM 35.9317 -119.2692 336° Northwest 432 497 38,000  Level Los Angeles Center
02:06PM 35.9750 -119.2939 335° Northwest 433 498 38,000  Level Oakland Center
02:07PM 36.1022 -119.3647 336° Northwest 424 488 38,000  Level Oakland Center
02:08PM 36.2094 -119.4269 335° Northwest 426 490 38,000  Level Oakland Center
02:09PM 36.3175 -119.4881 336° Northwest 428 493 38,000  Level Oakland Center
02:10PM 36.4183 -119.5633 329° Northwest 425 489 38,000  Level Oakland Center
02:11PM 36.5178 -119.6425 327° Northwest 426 490 38,000 -300 Level Oakland Center
02:12PM 36.6186 -119.7200 328° Northwest 426 490 37,500 -780 Descending Oakland Center
02:13PM 36.7183 -119.7972 328° Northwest 423 487 36,500 -1,020 Descending Oakland Center
02:14PM 36.8367 -119.8900 328° Northwest 421 484 35,400 -1,080 Descending Oakland Center
02:15PM 36.9386 -119.9683 328° Northwest 427 491 34,400 -1,020 Descending Oakland Center
02:16PM 37.0400 -120.0478 328° Northwest 431 496 33,400 -1,020 Descending Oakland Center
02:17PM 37.1364 -120.1228 328° Northwest 414 476 32,400 -1,020 Descending Oakland Center
02:18PM 37.2314 -120.2000 327° Northwest 409 471 31,400 -1,020 Descending Oakland Center
02:19PM 37.3278 -120.2750 328° Northwest 409 471 30,400 -1,020 Descending Oakland Center
02:21PM 37.4217 -120.3497 328° Northwest 401 461 29,400 -1,680 Descending Oakland Center
02:22PM 37.5228 -120.4511 322° Northwest 387 445 27,000 -2,220 Descending Oakland Center
02:23PM 37.6056 -120.5311 323° Northwest 377 434 24,900 -2,040 Descending Oakland Center
02:24PM 37.6844 -120.6114 321° Northwest 366 421 22,800 -1,980 Descending Oakland Center
02:25PM 37.7622 -120.6906 321° Northwest 359 413 20,900 -1,860 Descending Oakland Center
02:26PM 37.8381 -120.7661 322° Northwest 348 400 19,000 -1,740 Descending Oakland Center
02:27PM 37.9114 -120.8394 322° Northwest 338 389 17,400 -1,680 Descending Oakland Center
02:28PM 37.9819 -120.9111 321° Northwest 329 379 15,600 -1,800 Descending Oakland Center
02:29PM 38.0511 -120.9822 321° Northwest 321 369 13,800 -1,920 Descending Oakland Center
02:30PM 38.1231 -121.0767 314° West 309 356 11,700 -1,860 Descending Oakland Center
02:31PM 38.1667 -121.1500 307° West 304 350 10,300 -960 Descending Northern Cal TRACON
02:32PM 38.2167 -121.2167 314° West 294 338 10,000 -180 Descending Northern Cal TRACON
02:33PM 38.2667 -121.3000 307° West 300 345 10,000  Level Northern Cal TRACON
02:34PM 38.3333 -121.3833 316° Northwest 296 341 10,000  Level Northern Cal TRACON
02:35PM 38.3833 -121.4500 314° West 297 342 10,000 -660 Level Northern Cal TRACON
02:36PM 38.4333 -121.5333 307° West 283 326 8,800 -1,320 Descending Northern Cal TRACON
02:37PM 38.5000 -121.5833 330° Northwest 281 323 7,400 -1,080 Descending Northern Cal TRACON
02:38PM 38.5500 -121.6333 322° Northwest 251 289 6,700 -840 Descending Northern Cal TRACON
02:39PM 38.6167 -121.6833 330° Northwest 228 262 5,800 -1,020 Descending Northern Cal TRACON
02:40PM 38.6667 -121.7000 345° North 223 257 4,700 -1,380 Descending Northern Cal TRACON
02:41PM 38.7333 -121.7000 360° North 223 257 3,100 -1,140 Descending Northern Cal TRACON
02:41PM 38.7611 -121.7128 340° North 220 253 3,000 -300 Descending Oakland Center
02:42PM 38.8097 -121.7131 360° North 204 235 2,700 -540 Descending Oakland Center
02:43PM 38.8039 -121.6581 98° East 177 204 2,000 -420 Descending Oakland Center
02:44PM 38.7861 -121.6075 114° Southeast 163 188 1,900 -600 Descending Oakland Center
02:45PM 38.7467 -121.5992 171° South 151 174 800 -840 Descending Oakland Center
02:46PM 38.7050 -121.6017 183° South 144 166 200 -600 Descending Oakland Center